sensor_id;sensor_type;location;lat;lon;timestamp;pressure;altitude;pressure_sealevel;temperature;humidity
50430;BME280;36359;41.556;-8.418;2023-04-03T00:00:04;100808.94;;;13.11;74.17
50430;BME280;36359;41.556;-8.418;2023-04-03T00:02:32;100808.50;;;12.88;74.57
50430;BME280;36359;41.556;-8.418;2023-04-03T00:04:57;100805.16;;;12.76;74.35
50430;BME280;36359;41.556;-8.418;2023-04-03T00:07:23;100805.06;;;12.68;74.43
50430;BME280;36359;41.556;-8.418;2023-04-03T00:09:48;100800.63;;;12.67;75.13
50430;BME280;36359;41.556;-8.418;2023-04-03T00:12:14;100801.56;;;13.03;77.30
50430;BME280;36359;41.556;-8.418;2023-04-03T00:14:41;100797.06;;;12.84;74.22
50430;BME280;36359;41.556;-8.418;2023-04-03T00:17:06;100802.84;;;12.81;74.50
50430;BME280;36359;41.556;-8.418;2023-04-03T00:19:32;100798.44;;;12.98;75.87
50430;BME280;36359;41.556;-8.418;2023-04-03T00:21:58;100798.38;;;13.26;75.04
50430;BME280;36359;41.556;-8.418;2023-04-03T00:24:24;100793.84;;;12.99;74.12
50430;BME280;36359;41.556;-8.418;2023-04-03T00:26:49;100792.47;;;12.85;75.24
50430;BME280;36359;41.556;-8.418;2023-04-03T00:29:15;100784.91;;;12.61;78.02
50430;BME280;36359;41.556;-8.418;2023-04-03T00:31:41;100779.50;;;12.96;76.64
50430;BME280;36359;41.556;-8.418;2023-04-03T00:34:09;100775.91;;;12.78;75.96
50430;BME280;36359;41.556;-8.418;2023-04-03T00:36:35;100768.38;;;12.90;76.18
50430;BME280;36359;41.556;-8.418;2023-04-03T00:39:01;100759.75;;;12.94;76.40
50430;BME280;36359;41.556;-8.418;2023-04-03T00:41:27;100761.94;;;13.09;75.56
50430;BME280;36359;41.556;-8.418;2023-04-03T00:43:52;100753.38;;;13.04;75.44
50430;BME280;36359;41.556;-8.418;2023-04-03T00:46:18;100742.47;;;13.04;75.86
50430;BME280;36359;41.556;-8.418;2023-04-03T00:48:46;100748.56;;;12.98;75.43
50430;BME280;36359;41.556;-8.418;2023-04-03T00:51:16;100744.50;;;12.84;75.48
50430;BME280;36359;41.556;-8.418;2023-04-03T00:53:47;100746.84;;;12.51;75.89
50430;BME280;36359;41.556;-8.418;2023-04-03T00:56:16;100740.16;;;12.45;77.17
50430;BME280;36359;41.556;-8.418;2023-04-03T00:58:51;100743.19;;;12.42;75.50
50430;BME280;36359;41.556;-8.418;2023-04-03T01:01:22;100738.94;;;12.30;75.91
50430;BME280;36359;41.556;-8.418;2023-04-03T01:03:49;100738.63;;;12.05;77.04
50430;BME280;36359;41.556;-8.418;2023-04-03T01:06:18;100734.78;;;11.98;77.65
50430;BME280;36359;41.556;-8.418;2023-04-03T01:08:48;100737.63;;;12.07;77.29
50430;BME280;36359;41.556;-8.418;2023-04-03T01:11:15;100731.41;;;11.67;79.21
50430;BME280;36359;41.556;-8.418;2023-04-03T01:13:41;100731.53;;;11.85;77.16
50430;BME280;36359;41.556;-8.418;2023-04-03T01:16:07;100726.09;;;11.85;78.85
50430;BME280;36359;41.556;-8.418;2023-04-03T01:18:36;100723.78;;;11.90;80.71
50430;BME280;36359;41.556;-8.418;2023-04-03T01:26:39;100715.72;;;12.08;77.63
50430;BME280;36359;41.556;-8.418;2023-04-03T01:29:05;100714.56;;;12.11;77.51
50430;BME280;36359;41.556;-8.418;2023-04-03T01:31:50;100699.84;;;12.31;77.50
50430;BME280;36359;41.556;-8.418;2023-04-03T01:34:16;100708.34;;;12.46;78.21
50430;BME280;36359;41.556;-8.418;2023-04-03T01:36:41;100701.09;;;12.37;77.57
50430;BME280;36359;41.556;-8.418;2023-04-03T01:39:08;100692.69;;;12.30;77.61
50430;BME280;36359;41.556;-8.418;2023-04-03T01:41:34;100692.72;;;12.20;78.55
50430;BME280;36359;41.556;-8.418;2023-04-03T01:44:07;100690.16;;;12.46;79.64
50430;BME280;36359;41.556;-8.418;2023-04-03T01:46:33;100679.97;;;12.66;78.87
50430;BME280;36359;41.556;-8.418;2023-04-03T01:49:00;100684.03;;;12.44;76.76
50430;BME280;36359;41.556;-8.418;2023-04-03T01:51:25;100675.25;;;12.86;79.19
50430;BME280;36359;41.556;-8.418;2023-04-03T01:53:51;100669.34;;;12.10;76.79
50430;BME280;36359;41.556;-8.418;2023-04-03T01:56:17;100673.94;;;11.62;77.71
50430;BME280;36359;41.556;-8.418;2023-04-03T01:58:45;100673.66;;;11.65;79.63
50430;BME280;36359;41.556;-8.418;2023-04-03T02:01:11;100662.75;;;11.18;80.00
50430;BME280;36359;41.556;-8.418;2023-04-03T02:03:37;100668.31;;;11.36;79.91
50430;BME280;36359;41.556;-8.418;2023-04-03T02:06:02;100658.25;;;11.56;78.63
50430;BME280;36359;41.556;-8.418;2023-04-03T02:08:28;100653.38;;;11.50;79.02
50430;BME280;36359;41.556;-8.418;2023-04-03T02:10:54;100649.19;;;11.55;78.70
50430;BME280;36359;41.556;-8.418;2023-04-03T02:13:20;100651.66;;;11.49;80.17
50430;BME280;36359;41.556;-8.418;2023-04-03T02:15:46;100650.78;;;11.58;81.31
50430;BME280;36359;41.556;-8.418;2023-04-03T02:18:15;100638.75;;;11.60;76.08
50430;BME280;36359;41.556;-8.418;2023-04-03T02:20:41;100640.66;;;11.50;74.11
50430;BME280;36359;41.556;-8.418;2023-04-03T02:23:07;100635.78;;;11.54;74.55
50430;BME280;36359;41.556;-8.418;2023-04-03T02:25:33;100634.25;;;11.42;70.93
50430;BME280;36359;41.556;-8.418;2023-04-03T02:28:00;100647.38;;;11.56;69.72
50430;BME280;36359;41.556;-8.418;2023-04-03T02:30:25;100634.06;;;11.90;70.87
50430;BME280;36359;41.556;-8.418;2023-04-03T02:32:52;100635.13;;;12.07;68.52
50430;BME280;36359;41.556;-8.418;2023-04-03T02:35:18;100633.66;;;12.13;67.40
50430;BME280;36359;41.556;-8.418;2023-04-03T02:37:44;100634.28;;;12.07;65.73
50430;BME280;36359;41.556;-8.418;2023-04-03T02:40:09;100632.38;;;11.89;66.26
50430;BME280;36359;41.556;-8.418;2023-04-03T02:42:37;100629.47;;;11.91;68.05
50430;BME280;36359;41.556;-8.418;2023-04-03T02:45:04;100632.00;;;12.02;67.30
50430;BME280;36359;41.556;-8.418;2023-04-03T02:47:30;100622.84;;;12.03;69.77
50430;BME280;36359;41.556;-8.418;2023-04-03T02:49:56;100627.34;;;11.85;66.29
50430;BME280;36359;41.556;-8.418;2023-04-03T02:52:22;100628.88;;;11.97;68.48
50430;BME280;36359;41.556;-8.418;2023-04-03T02:54:49;100629.38;;;12.10;70.25
50430;BME280;36359;41.556;-8.418;2023-04-03T02:57:14;100625.91;;;11.90;67.88
50430;BME280;36359;41.556;-8.418;2023-04-03T02:59:40;100627.81;;;11.80;68.47
50430;BME280;36359;41.556;-8.418;2023-04-03T03:02:10;100611.03;;;11.57;71.61
50430;BME280;36359;41.556;-8.418;2023-04-03T03:04:36;100608.66;;;11.72;71.84
50430;BME280;36359;41.556;-8.418;2023-04-03T03:07:02;100606.34;;;11.77;72.21
50430;BME280;36359;41.556;-8.418;2023-04-03T03:09:29;100597.13;;;11.60;71.29
50430;BME280;36359;41.556;-8.418;2023-04-03T03:11:55;100595.38;;;11.69;74.15
50430;BME280;36359;41.556;-8.418;2023-04-03T03:14:22;100586.31;;;11.78;73.67
50430;BME280;36359;41.556;-8.418;2023-04-03T03:16:48;100573.63;;;11.69;72.27
50430;BME280;36359;41.556;-8.418;2023-04-03T03:19:19;100570.81;;;11.60;72.05
50430;BME280;36359;41.556;-8.418;2023-04-03T03:21:45;100565.09;;;11.81;76.00
50430;BME280;36359;41.556;-8.418;2023-04-03T03:24:11;100574.41;;;11.79;74.19
50430;BME280;36359;41.556;-8.418;2023-04-03T03:26:37;100580.88;;;11.13;73.26
50430;BME280;36359;41.556;-8.418;2023-04-03T03:29:03;100581.75;;;10.94;73.00
50430;BME280;36359;41.556;-8.418;2023-04-03T03:31:29;100579.25;;;10.63;76.11
50430;BME280;36359;41.556;-8.418;2023-04-03T03:33:54;100576.75;;;11.09;79.23
50430;BME280;36359;41.556;-8.418;2023-04-03T03:36:21;100558.19;;;11.32;73.46
50430;BME280;36359;41.556;-8.418;2023-04-03T03:38:47;100562.00;;;12.22;75.41
50430;BME280;36359;41.556;-8.418;2023-04-03T03:41:13;100571.53;;;11.63;68.83
50430;BME280;36359;41.556;-8.418;2023-04-03T03:43:41;100572.00;;;11.11;70.26
50430;BME280;36359;41.556;-8.418;2023-04-03T03:46:07;100570.78;;;11.33;73.97
50430;BME280;36359;41.556;-8.418;2023-04-03T03:48:33;100563.22;;;11.92;79.89
50430;BME280;36359;41.556;-8.418;2023-04-03T03:50:59;100560.53;;;11.82;77.62
50430;BME280;36359;41.556;-8.418;2023-04-03T03:53:29;100554.22;;;10.69;82.90
50430;BME280;36359;41.556;-8.418;2023-04-03T03:55:59;100568.38;;;11.57;80.25
50430;BME280;36359;41.556;-8.418;2023-04-03T03:58:26;100568.31;;;11.77;82.75
50430;BME280;36359;41.556;-8.418;2023-04-03T04:00:52;100557.41;;;11.87;82.58
50430;BME280;36359;41.556;-8.418;2023-04-03T04:03:18;100555.75;;;11.66;79.30
50430;BME280;36359;41.556;-8.418;2023-04-03T04:05:46;100556.06;;;11.63;79.44
50430;BME280;36359;41.556;-8.418;2023-04-03T04:08:13;100555.41;;;11.51;80.25
50430;BME280;36359;41.556;-8.418;2023-04-03T04:10:38;100550.31;;;11.39;80.14
50430;BME280;36359;41.556;-8.418;2023-04-03T04:13:05;100549.28;;;11.02;82.59
50430;BME280;36359;41.556;-8.418;2023-04-03T04:15:31;100548.03;;;11.34;86.44
50430;BME280;36359;41.556;-8.418;2023-04-03T04:17:57;100540.63;;;11.36;82.24
50430;BME280;36359;41.556;-8.418;2023-04-03T04:20:24;100537.19;;;11.34;80.55
50430;BME280;36359;41.556;-8.418;2023-04-03T04:22:50;100540.34;;;11.29;81.38
50430;BME280;36359;41.556;-8.418;2023-04-03T04:25:17;100532.13;;;11.11;78.21
50430;BME280;36359;41.556;-8.418;2023-04-03T04:27:43;100528.03;;;10.98;78.28
50430;BME280;36359;41.556;-8.418;2023-04-03T04:30:12;100527.88;;;10.99;78.60
50430;BME280;36359;41.556;-8.418;2023-04-03T04:32:38;100523.50;;;10.79;79.60
50430;BME280;36359;41.556;-8.418;2023-04-03T04:35:04;100528.88;;;10.98;78.88
50430;BME280;36359;41.556;-8.418;2023-04-03T04:37:33;100519.03;;;10.97;79.32
50430;BME280;36359;41.556;-8.418;2023-04-03T04:39:59;100518.31;;;10.95;77.22
50430;BME280;36359;41.556;-8.418;2023-04-03T04:42:25;100504.31;;;10.90;77.20
50430;BME280;36359;41.556;-8.418;2023-04-03T04:44:51;100500.03;;;10.97;76.71
50430;BME280;36359;41.556;-8.418;2023-04-03T04:47:17;100507.31;;;10.97;75.45
50430;BME280;36359;41.556;-8.418;2023-04-03T04:49:43;100492.50;;;10.81;75.50
50430;BME280;36359;41.556;-8.418;2023-04-03T04:52:09;100503.63;;;11.25;76.60
50430;BME280;36359;41.556;-8.418;2023-04-03T04:54:37;100491.91;;;10.97;74.59
50430;BME280;36359;41.556;-8.418;2023-04-03T04:57:03;100494.22;;;11.20;73.58
50430;BME280;36359;41.556;-8.418;2023-04-03T04:59:29;100493.94;;;11.50;73.42
50430;BME280;36359;41.556;-8.418;2023-04-03T05:01:57;100487.38;;;11.71;70.62
50430;BME280;36359;41.556;-8.418;2023-04-03T05:04:23;100492.81;;;11.71;66.85
50430;BME280;36359;41.556;-8.418;2023-04-03T05:06:54;100494.28;;;11.83;79.63
50430;BME280;36359;41.556;-8.418;2023-04-03T05:09:23;100492.19;;;11.77;70.93
50430;BME280;36359;41.556;-8.418;2023-04-03T05:11:50;100496.03;;;11.56;69.49
50430;BME280;36359;41.556;-8.418;2023-04-03T05:14:18;100493.59;;;11.35;72.88
50430;BME280;36359;41.556;-8.418;2023-04-03T05:19:19;100492.09;;;11.13;75.17
50430;BME280;36359;41.556;-8.418;2023-04-03T05:21:45;100484.84;;;11.04;75.96
50430;BME280;36359;41.556;-8.418;2023-04-03T05:24:14;100487.63;;;10.95;76.85
50430;BME280;36359;41.556;-8.418;2023-04-03T05:26:43;100489.53;;;10.75;74.30
50430;BME280;36359;41.556;-8.418;2023-04-03T05:29:10;100490.03;;;10.88;75.25
50430;BME280;36359;41.556;-8.418;2023-04-03T05:31:36;100489.50;;;10.84;73.85
50430;BME280;36359;41.556;-8.418;2023-04-03T05:34:02;100487.16;;;10.99;74.18
50430;BME280;36359;41.556;-8.418;2023-04-03T05:36:31;100486.34;;;10.79;73.84
50430;BME280;36359;41.556;-8.418;2023-04-03T05:39:20;100483.03;;;10.48;74.27
50430;BME280;36359;41.556;-8.418;2023-04-03T05:42:08;100475.03;;;10.37;75.11
50430;BME280;36359;41.556;-8.418;2023-04-03T05:44:34;100477.72;;;10.56;78.92
50430;BME280;36359;41.556;-8.418;2023-04-03T05:49:32;100482.16;;;10.48;77.96
50430;BME280;36359;41.556;-8.418;2023-04-03T05:51:58;100477.72;;;10.17;75.58
50430;BME280;36359;41.556;-8.418;2023-04-03T05:54:29;100471.03;;;10.02;75.82
50430;BME280;36359;41.556;-8.418;2023-04-03T05:57:02;100473.88;;;10.49;79.40
50430;BME280;36359;41.556;-8.418;2023-04-03T05:59:28;100471.75;;;10.14;76.33
50430;BME280;36359;41.556;-8.418;2023-04-03T06:01:56;100466.47;;;10.22;78.71
50430;BME280;36359;41.556;-8.418;2023-04-03T06:04:23;100465.03;;;10.18;78.08
50430;BME280;36359;41.556;-8.418;2023-04-03T06:06:50;100477.84;;;9.48;79.95
50430;BME280;36359;41.556;-8.418;2023-04-03T06:09:21;100469.81;;;9.46;82.28
50430;BME280;36359;41.556;-8.418;2023-04-03T06:11:47;100477.75;;;9.28;79.96
50430;BME280;36359;41.556;-8.418;2023-04-03T06:14:13;100475.69;;;9.01;82.24
50430;BME280;36359;41.556;-8.418;2023-04-03T06:16:40;100474.84;;;9.51;82.97
50430;BME280;36359;41.556;-8.418;2023-04-03T06:19:10;100480.16;;;9.82;83.29
50430;BME280;36359;41.556;-8.418;2023-04-03T06:21:39;100480.44;;;10.08;83.67
50430;BME280;36359;41.556;-8.418;2023-04-03T06:24:06;100472.34;;;10.27;85.42
50430;BME280;36359;41.556;-8.418;2023-04-03T06:26:34;100461.75;;;10.34;83.67
50430;BME280;36359;41.556;-8.418;2023-04-03T06:29:00;100470.91;;;10.33;83.83
50430;BME280;36359;41.556;-8.418;2023-04-03T06:31:27;100468.63;;;10.28;83.53
50430;BME280;36359;41.556;-8.418;2023-04-03T06:33:53;100477.31;;;10.32;83.36
50430;BME280;36359;41.556;-8.418;2023-04-03T06:36:19;100476.44;;;10.41;85.48
50430;BME280;36359;41.556;-8.418;2023-04-03T06:38:47;100480.16;;;10.59;83.29
50430;BME280;36359;41.556;-8.418;2023-04-03T06:41:13;100481.25;;;10.66;82.73
50430;BME280;36359;41.556;-8.418;2023-04-03T06:43:38;100476.66;;;10.77;81.85
50430;BME280;36359;41.556;-8.418;2023-04-03T06:46:05;100480.81;;;11.08;80.79
50430;BME280;36359;41.556;-8.418;2023-04-03T06:48:30;100487.06;;;11.19;80.16
50430;BME280;36359;41.556;-8.418;2023-04-03T06:50:56;100488.66;;;11.11;80.17
50430;BME280;36359;41.556;-8.418;2023-04-03T06:53:22;100494.16;;;11.02;78.05
50430;BME280;36359;41.556;-8.418;2023-04-03T06:55:48;100498.81;;;10.72;83.99
50430;BME280;36359;41.556;-8.418;2023-04-03T06:58:14;100501.47;;;10.91;82.77
50430;BME280;36359;41.556;-8.418;2023-04-03T07:00:40;100488.72;;;10.26;85.00
50430;BME280;36359;41.556;-8.418;2023-04-03T07:03:06;100501.41;;;10.64;83.61
50430;BME280;36359;41.556;-8.418;2023-04-03T07:05:32;100498.72;;;10.54;84.52
50430;BME280;36359;41.556;-8.418;2023-04-03T07:07:58;100505.84;;;10.55;84.66
50430;BME280;36359;41.556;-8.418;2023-04-03T07:10:23;100501.25;;;10.65;84.43
50430;BME280;36359;41.556;-8.418;2023-04-03T07:12:49;100503.97;;;11.12;83.11
50430;BME280;36359;41.556;-8.418;2023-04-03T07:15:15;100509.16;;;10.96;82.72
50430;BME280;36359;41.556;-8.418;2023-04-03T07:17:40;100509.75;;;10.90;82.52
50430;BME280;36359;41.556;-8.418;2023-04-03T07:20:07;100502.41;;;11.10;81.56
50430;BME280;36359;41.556;-8.418;2023-04-03T07:22:33;100501.31;;;11.58;82.77
50430;BME280;36359;41.556;-8.418;2023-04-03T07:24:59;100490.81;;;12.44;79.71
50430;BME280;36359;41.556;-8.418;2023-04-03T07:27:25;100485.94;;;12.12;79.21
50430;BME280;36359;41.556;-8.418;2023-04-03T07:29:51;100489.06;;;12.43;78.96
50430;BME280;36359;41.556;-8.418;2023-04-03T07:32:17;100490.50;;;12.12;78.89
50430;BME280;36359;41.556;-8.418;2023-04-03T07:34:43;100487.22;;;12.26;76.19
50430;BME280;36359;41.556;-8.418;2023-04-03T07:37:09;100490.81;;;12.44;74.82
50430;BME280;36359;41.556;-8.418;2023-04-03T07:39:35;100493.94;;;12.14;71.24
50430;BME280;36359;41.556;-8.418;2023-04-03T07:42:01;100483.47;;;11.73;73.52
50430;BME280;36359;41.556;-8.418;2023-04-03T07:44:27;100482.81;;;11.62;75.67
50430;BME280;36359;41.556;-8.418;2023-04-03T07:46:54;100478.94;;;11.64;75.55
50430;BME280;36359;41.556;-8.418;2023-04-03T07:49:21;100480.19;;;11.97;76.60
50430;BME280;36359;41.556;-8.418;2023-04-03T07:51:49;100484.16;;;11.75;76.22
50430;BME280;36359;41.556;-8.418;2023-04-03T07:54:15;100483.06;;;11.96;75.53
50430;BME280;36359;41.556;-8.418;2023-04-03T07:56:41;100472.06;;;12.23;76.09
50430;BME280;36359;41.556;-8.418;2023-04-03T07:59:09;100461.41;;;12.74;74.44
50430;BME280;36359;41.556;-8.418;2023-04-03T08:01:34;100453.56;;;12.71;71.86
50430;BME280;36359;41.556;-8.418;2023-04-03T08:04:00;100457.25;;;12.62;70.32
50430;BME280;36359;41.556;-8.418;2023-04-03T08:06:27;100456.41;;;12.43;71.29
50430;BME280;36359;41.556;-8.418;2023-04-03T08:08:54;100440.75;;;12.63;75.01
50430;BME280;36359;41.556;-8.418;2023-04-03T08:11:23;100444.31;;;12.64;68.09
50430;BME280;36359;41.556;-8.418;2023-04-03T08:13:49;100440.28;;;12.76;66.73
50430;BME280;36359;41.556;-8.418;2023-04-03T08:16:20;100439.84;;;12.55;63.91
50430;BME280;36359;41.556;-8.418;2023-04-03T08:18:47;100430.81;;;12.80;66.56
50430;BME280;36359;41.556;-8.418;2023-04-03T08:21:14;100441.91;;;12.87;68.31
50430;BME280;36359;41.556;-8.418;2023-04-03T08:23:40;100436.97;;;12.90;64.22
50430;BME280;36359;41.556;-8.418;2023-04-03T08:26:15;100447.88;;;12.90;62.21
50430;BME280;36359;41.556;-8.418;2023-04-03T08:28:41;100429.34;;;13.28;67.71
50430;BME280;36359;41.556;-8.418;2023-04-03T08:31:10;100431.59;;;13.41;62.85
50430;BME280;36359;41.556;-8.418;2023-04-03T08:33:38;100440.66;;;13.42;62.33
50430;BME280;36359;41.556;-8.418;2023-04-03T08:36:06;100436.56;;;13.46;60.34
50430;BME280;36359;41.556;-8.418;2023-04-03T08:38:33;100433.22;;;13.76;59.57
50430;BME280;36359;41.556;-8.418;2023-04-03T08:44:14;100438.69;;;14.17;66.15
50430;BME280;36359;41.556;-8.418;2023-04-03T08:49:29;100443.56;;;15.74;61.45
50430;BME280;36359;41.556;-8.418;2023-04-03T08:51:58;100433.06;;;15.86;60.86
50430;BME280;36359;41.556;-8.418;2023-04-03T08:54:35;100435.69;;;15.40;55.72
50430;BME280;36359;41.556;-8.418;2023-04-03T08:57:04;100438.34;;;14.45;51.99
50430;BME280;36359;41.556;-8.418;2023-04-03T08:59:37;100432.88;;;13.71;55.74
50430;BME280;36359;41.556;-8.418;2023-04-03T09:02:21;100436.28;;;13.23;56.49
50430;BME280;36359;41.556;-8.418;2023-04-03T09:04:48;100444.00;;;13.27;56.64
50430;BME280;36359;41.556;-8.418;2023-04-03T09:07:30;100438.19;;;14.05;58.05
50430;BME280;36359;41.556;-8.418;2023-04-03T09:10:00;100437.63;;;14.84;61.85
50430;BME280;36359;41.556;-8.418;2023-04-03T09:12:34;100435.88;;;14.99;58.40
50430;BME280;36359;41.556;-8.418;2023-04-03T09:26:15;100421.88;;;14.94;58.78
50430;BME280;36359;41.556;-8.418;2023-04-03T09:28:44;100414.28;;;15.52;59.81
50430;BME280;36359;41.556;-8.418;2023-04-03T09:33:48;100413.06;;;16.23;57.46
50430;BME280;36359;41.556;-8.418;2023-04-03T09:36:42;100416.66;;;16.09;58.09
50430;BME280;36359;41.556;-8.418;2023-04-03T09:39:14;100408.22;;;16.33;56.81
50430;BME280;36359;41.556;-8.418;2023-04-03T09:41:42;100416.06;;;16.37;57.62
50430;BME280;36359;41.556;-8.418;2023-04-03T09:44:29;100403.53;;;16.72;55.47
50430;BME280;36359;41.556;-8.418;2023-04-03T09:46:56;100403.50;;;16.42;54.52
50430;BME280;36359;41.556;-8.418;2023-04-03T09:49:22;100400.88;;;16.11;58.47
50430;BME280;36359;41.556;-8.418;2023-04-03T09:51:47;100401.19;;;16.16;59.21
50430;BME280;36359;41.556;-8.418;2023-04-03T09:56:53;100396.41;;;16.33;59.24
50430;BME280;36359;41.556;-8.418;2023-04-03T09:59:21;100397.69;;;16.22;59.83
50430;BME280;36359;41.556;-8.418;2023-04-03T10:02:23;100392.47;;;16.35;59.60
50430;BME280;36359;41.556;-8.418;2023-04-03T10:04:53;100396.88;;;16.37;61.15
50430;BME280;36359;41.556;-8.418;2023-04-03T10:07:34;100377.44;;;16.61;59.30
50430;BME280;36359;41.556;-8.418;2023-04-03T10:10:24;100382.41;;;16.80;58.72
50430;BME280;36359;41.556;-8.418;2023-04-03T10:15:38;100379.75;;;17.02;58.20
50430;BME280;36359;41.556;-8.418;2023-04-03T10:18:24;100373.84;;;17.20;57.67
50430;BME280;36359;41.556;-8.418;2023-04-03T10:20:54;100368.00;;;17.23;57.84
50430;BME280;36359;41.556;-8.418;2023-04-03T10:23:30;100366.66;;;17.34;57.71
50430;BME280;36359;41.556;-8.418;2023-04-03T10:31:46;100365.94;;;17.46;56.57
50430;BME280;36359;41.556;-8.418;2023-04-03T10:34:25;100358.38;;;17.48;52.87
50430;BME280;36359;41.556;-8.418;2023-04-03T10:37:20;100363.53;;;17.58;56.54
50430;BME280;36359;41.556;-8.418;2023-04-03T10:39:56;100360.56;;;17.75;56.56
50430;BME280;36359;41.556;-8.418;2023-04-03T10:42:55;100361.28;;;18.05;50.88
50430;BME280;36359;41.556;-8.418;2023-04-03T10:45:31;100366.13;;;17.81;48.80
50430;BME280;36359;41.556;-8.418;2023-04-03T10:48:11;100361.41;;;17.75;47.70
50430;BME280;36359;41.556;-8.418;2023-04-03T10:53:39;100362.06;;;17.77;51.95
50430;BME280;36359;41.556;-8.418;2023-04-03T10:58:53;100356.88;;;18.10;49.72
50430;BME280;36359;41.556;-8.418;2023-04-03T11:01:24;100352.84;;;18.34;50.73
50430;BME280;36359;41.556;-8.418;2023-04-03T11:03:57;100352.56;;;18.23;53.40
50430;BME280;36359;41.556;-8.418;2023-04-03T11:06:28;100354.34;;;18.65;50.82
50430;BME280;36359;41.556;-8.418;2023-04-03T11:09:03;100349.00;;;18.57;47.10
50430;BME280;36359;41.556;-8.418;2023-04-03T11:11:34;100349.59;;;18.52;50.38
50430;BME280;36359;41.556;-8.418;2023-04-03T11:14:28;100352.72;;;18.43;51.10
50430;BME280;36359;41.556;-8.418;2023-04-03T11:25:30;100343.97;;;18.67;50.60
50430;BME280;36359;41.556;-8.418;2023-04-03T11:28:03;100340.28;;;18.81;43.46
50430;BME280;36359;41.556;-8.418;2023-04-03T11:33:58;100343.22;;;18.45;47.20
50430;BME280;36359;41.556;-8.418;2023-04-03T11:36:30;100345.66;;;18.33;48.00
50430;BME280;36359;41.556;-8.418;2023-04-03T11:39:16;100339.25;;;18.26;48.09
50430;BME280;36359;41.556;-8.418;2023-04-03T11:41:45;100334.97;;;18.17;47.79
50430;BME280;36359;41.556;-8.418;2023-04-03T11:47:00;100335.38;;;18.14;47.02
50430;BME280;36359;41.556;-8.418;2023-04-03T11:49:55;100338.13;;;18.14;47.71
50430;BME280;36359;41.556;-8.418;2023-04-03T12:16:02;100324.97;;;18.37;47.76
50430;BME280;36359;41.556;-8.418;2023-04-03T12:18:48;100321.81;;;18.41;48.58
50430;BME280;36359;41.556;-8.418;2023-04-03T12:37:09;100298.44;;;18.51;48.71
50430;BME280;36359;41.556;-8.418;2023-04-03T12:45:24;100286.56;;;18.44;49.57
50430;BME280;36359;41.556;-8.418;2023-04-03T12:47:53;100279.75;;;18.68;48.94
50430;BME280;36359;41.556;-8.418;2023-04-03T12:53:05;100277.66;;;18.35;50.06
50430;BME280;36359;41.556;-8.418;2023-04-03T12:55:31;100280.84;;;18.39;50.54
50430;BME280;36359;41.556;-8.418;2023-04-03T13:00:42;100271.19;;;18.15;50.27
50430;BME280;36359;41.556;-8.418;2023-04-03T13:03:22;100263.16;;;17.85;52.17
50430;BME280;36359;41.556;-8.418;2023-04-03T13:05:48;100259.03;;;18.03;51.77
50430;BME280;36359;41.556;-8.418;2023-04-03T13:08:15;100257.09;;;17.97;51.58
50430;BME280;36359;41.556;-8.418;2023-04-03T13:11:11;100249.41;;;18.13;52.41
50430;BME280;36359;41.556;-8.418;2023-04-03T13:13:37;100242.66;;;18.16;52.28
50430;BME280;36359;41.556;-8.418;2023-04-03T13:16:09;100234.88;;;18.20;52.78
50430;BME280;36359;41.556;-8.418;2023-04-03T13:18:36;100229.25;;;18.34;53.22
50430;BME280;36359;41.556;-8.418;2023-04-03T13:21:10;100221.41;;;18.31;53.38
50430;BME280;36359;41.556;-8.418;2023-04-03T13:23:41;100227.22;;;18.98;53.10
50430;BME280;36359;41.556;-8.418;2023-04-03T13:26:08;100220.69;;;18.51;55.12
50430;BME280;36359;41.556;-8.418;2023-04-03T13:28:35;100224.03;;;18.46;56.56
50430;BME280;36359;41.556;-8.418;2023-04-03T13:31:22;100219.22;;;18.55;54.93
50430;BME280;36359;41.556;-8.418;2023-04-03T13:34:06;100210.47;;;18.38;54.59
50430;BME280;36359;41.556;-8.418;2023-04-03T13:36:44;100205.44;;;18.42;55.63
50430;BME280;36359;41.556;-8.418;2023-04-03T13:41:44;100206.25;;;18.83;54.39
50430;BME280;36359;41.556;-8.418;2023-04-03T13:46:52;100197.41;;;18.47;55.72
50430;BME280;36359;41.556;-8.418;2023-04-03T13:49:36;100194.47;;;18.48;57.44
50430;BME280;36359;41.556;-8.418;2023-04-03T13:52:27;100204.19;;;18.51;55.90
50430;BME280;36359;41.556;-8.418;2023-04-03T13:55:02;100191.03;;;18.39;56.03
50430;BME280;36359;41.556;-8.418;2023-04-03T13:57:28;100181.31;;;18.44;55.77
50430;BME280;36359;41.556;-8.418;2023-04-03T13:59:54;100181.03;;;18.73;55.54
50430;BME280;36359;41.556;-8.418;2023-04-03T14:02:32;100167.03;;;18.61;55.60
50430;BME280;36359;41.556;-8.418;2023-04-03T14:05:00;100163.19;;;18.49;55.66
50430;BME280;36359;41.556;-8.418;2023-04-03T14:07:28;100146.69;;;18.43;55.96
50430;BME280;36359;41.556;-8.418;2023-04-03T14:09:55;100154.22;;;18.75;55.70
50430;BME280;36359;41.556;-8.418;2023-04-03T14:12:35;100153.50;;;18.60;55.69
50430;BME280;36359;41.556;-8.418;2023-04-03T14:15:15;100146.84;;;18.89;56.70
50430;BME280;36359;41.556;-8.418;2023-04-03T14:17:41;100129.72;;;18.94;56.37
50430;BME280;36359;41.556;-8.418;2023-04-03T14:22:34;100133.63;;;18.65;56.38
50430;BME280;36359;41.556;-8.418;2023-04-03T14:25:01;100116.84;;;19.08;56.25
50430;BME280;36359;41.556;-8.418;2023-04-03T14:27:35;100114.69;;;18.90;56.56
50430;BME280;36359;41.556;-8.418;2023-04-03T14:30:02;100119.38;;;19.16;55.28
50430;BME280;36359;41.556;-8.418;2023-04-03T14:32:29;100114.72;;;19.16;56.03
50430;BME280;36359;41.556;-8.418;2023-04-03T14:34:55;100102.22;;;18.94;55.75
50430;BME280;36359;41.556;-8.418;2023-04-03T14:37:27;100108.38;;;18.82;56.96
50430;BME280;36359;41.556;-8.418;2023-04-03T14:39:57;100104.00;;;18.47;57.34
50430;BME280;36359;41.556;-8.418;2023-04-03T14:42:26;100103.66;;;18.76;57.18
50430;BME280;36359;41.556;-8.418;2023-04-03T14:44:52;100096.91;;;18.79;54.99
50430;BME280;36359;41.556;-8.418;2023-04-03T14:47:24;100088.41;;;18.54;55.70
50430;BME280;36359;41.556;-8.418;2023-04-03T14:49:50;100085.19;;;18.44;56.03